Terminal Aerodrome Forecast
Issued by NWS Paducah, KY

Home | Current Version | Previous Version | Text Only | Print | Product List | Glossary On
Versions: 1 2 3 4 5 6 7 8 9 10 11 12 13 14
135
FTUS43 KPAH 182320
TAFPAH
TAF
KPAH 182320Z 1900/1924 21003KT P6SM SCT120
     FM190900 24004KT P6SM FEW060 SCT120
     FM191400 27004KT P6SM FEW030
     FM191700 32005KT P6SM FEW040=

USA.gov is the U.S. government's official web portal to all federal, state and local government web resources and services.